Map

Track Data

SID SEASON NUMBER BASIN SUBBASIN NAME ISO_TIME NATURE LAT LON WMO_WIND WMO_PRES WMO_AGENCY TRACK_TYPE DIST2LAND LANDFALL IFLAG USA_AGENCY USA_ATCF_ID USA_LAT USA_LON USA_RECORD USA_STATUS USA_WIND USA_PRES USA_SSHS USA_R34_NE USA_R34_SE USA_R34_SW USA_R34_NW USA_R50_NE USA_R50_SE USA_R50_SW USA_R50_NW USA_R64_NE USA_R64_SE USA_R64_SW USA_R64_NW USA_POCI USA_ROCI USA_RMW USA_EYE TOKYO_LAT TOKYO_LON TOKYO_GRADE TOKYO_WIND TOKYO_PRES TOKYO_R50_DIR TOKYO_R50_LONG TOKYO_R50_SHORT TOKYO_R30_DIR TOKYO_R30_LONG TOKYO_R30_SHORT TOKYO_LAND CMA_LAT CMA_LON CMA_CAT CMA_WIND CMA_PRES HKO_LAT HKO_LON HKO_CAT HKO_WIND HKO_PRES NEWDELHI_LAT NEWDELHI_LON NEWDELHI_GRADE NEWDELHI_WIND NEWDELHI_PRES NEWDELHI_CI NEWDELHI_DP NEWDELHI_POCI REUNION_LAT REUNION_LON REUNION_TYPE REUNION_WIND REUNION_PRES REUNION_TNUM REUNION_CI REUNION_RMW REUNION_R34_NE REUNION_R34_SE REUNION_R34_SW REUNION_R34_NW REUNION_R50_NE REUNION_R50_SE REUNION_R50_SW REUNION_R50_NW REUNION_R64_NE REUNION_R64_SE REUNION_R64_SW REUNION_R64_NW BOM_LAT BOM_LON BOM_TYPE BOM_WIND BOM_PRES BOM_TNUM BOM_CI BOM_RMW BOM_R34_NE BOM_R34_SE BOM_R34_SW BOM_R34_NW BOM_R50_NE BOM_R50_SE BOM_R50_SW BOM_R50_NW BOM_R64_NE BOM_R64_SE BOM_R64_SW BOM_R64_NW BOM_ROCI BOM_POCI BOM_EYE BOM_POS_METHOD BOM_PRES_METHOD NADI_LAT NADI_LON NADI_CAT NADI_WIND NADI_PRES WELLINGTON_LAT WELLINGTON_LON WELLINGTON_WIND WELLINGTON_PRES DS824_LAT DS824_LON DS824_STAGE DS824_WIND DS824_PRES TD9636_LAT TD9636_LON TD9636_STAGE TD9636_WIND TD9636_PRES TD9635_LAT TD9635_LON TD9635_WIND TD9635_PRES TD9635_ROCI NEUMANN_LAT NEUMANN_LON NEUMANN_CLASS NEUMANN_WIND NEUMANN_PRES MLC_LAT MLC_LON MLC_CLASS MLC_WIND MLC_PRES USA_GUST BOM_GUST BOM_GUST_PER REUNION_GUST REUNION_GUST_PER USA_SEAHGT USA_SEARAD_NE USA_SEARAD_SE USA_SEARAD_SW USA_SEARAD_NW STORM_SPEED STORM_DIR
1949245N18126 1949 63 WP MM NOT_NAMED 1949-09-02 00:00:00 TS 18.3000 125.500 main 337 306 __O___________ -1 18.3000 125.500 0 1002 7 299
1949245N18126 1949 63 WP MM NOT_NAMED 1949-09-02 03:00:00 TS 18.4626 125.190 main 306 169 __P___________ -1 18.4626 125.190 0 1002 16 275
1949245N18126 1949 63 WP MM NOT_NAMED 1949-09-02 06:00:00 TS 18.4500 123.800 main 158 137 O_O______O_O__ jtwc_wp WP121949 18.3000 122.700 20 -1 18.6000 124.900 0 1002 18.3000 122.700 TC 20 18.3000 122.700 20 1002 120 15 271
1949245N18126 1949 63 WP MM NOT_NAMED 1949-09-02 09:00:00 TS 18.4825 123.612 main 137 127 P_P______P_P__ WP121949 18.3376 122.925 22 -1 18.6999 124.642 0 1002 18.3376 122.925 TC 22 18.3376 122.925 22 1001 120 3 282
1949245N18126 1949 63 WP MM NOT_NAMED 1949-09-02 12:00:00 TS 18.5143 123.471 main 127 116 O_O______OOO__ jtwc_wp WP121949 18.4000 123.100 25 -1 18.8000 124.400 0 1002 18.4000 123.100 TC 25 18.4000 123.100 1 25 18.4000 123.100 25 1001 120 2 301
1949245N18126 1949 63 WP MM NOT_NAMED 1949-09-02 15:00:00 TS 18.5956 123.415 main 118 118 P_P______PPP__ WP121949 18.4999 123.200 25 -1 18.9500 124.143 0 1001 18.4999 123.200 TC 25 18.4610 123.247 1 26 18.4999 123.200 25 1000 90 2 345
1949245N18126 1949 63 WP MM NOT_NAMED 1949-09-02 18:00:00 TS 18.6938 123.441 main 120 120 O_O______OPO__ jtwc_wp WP121949 18.6000 123.300 25 -1 19.1000 123.900 0 1000 18.6000 123.300 TC 25 18.5276 123.395 1 27 18.6000 123.300 25 999 60 2 37
1949245N18126 1949 63 WP MM NOT_NAMED 1949-09-02 21:00:00 TS 18.7526 123.540 main 134 134 P_P______PPP__ WP121949 18.6500 123.485 27 -1 19.2074 123.700 0 1000 18.6500 123.485 TC 27 18.6054 123.546 1 28 18.6500 123.485 27 998 60 2 58
1949245N18126 1949 63 WP MM NOT_NAMED 1949-09-03 00:00:00 TS 18.8200 123.660 main 154 154 O_O______OOO__ jtwc_wp WP121949 18.7000 123.700 30 -1 19.3000 123.500 0 1000 18.7000 123.700 TC 30 18.7000 123.700 1 30 18.7000 123.700 30 998 60 3 54
1949245N18126 1949 63 WP MM NOT_NAMED 1949-09-03 03:00:00 TS 18.9170 123.780 main 167 167 P_P______PPP__ WP121949 18.7850 123.930 30 -1 19.4150 123.258 0 1000 18.7850 123.930 TC 30 18.8147 123.855 1 30 18.7850 123.930 30 997 90 3 42
1949245N18126 1949 63 WP MM NOT_NAMED 1949-09-03 06:00:00 TS 19.0285 123.858 main 181 181 O_O______OPO__ jtwc_wp WP121949 18.9000 124.100 30 -1 19.5000 123.000 0 1000 18.9000 124.100 TC 30 18.9424 123.990 1 30 18.9000 124.100 30 996 120 2 16
1949245N18126 1949 63 WP MM NOT_NAMED 1949-09-03 09:00:00 TS 19.1478 123.857 main 185 181 P_P______PPP__ WP121949 19.0499 124.153 30 -1 19.5150 122.750 0 1000 19.0499 124.153 TC 30 19.0740 124.080 1 30 19.0499 124.153 30 996 150 2 344
1949245N18126 1949 63 WP MM NOT_NAMED 1949-09-03 12:00:00 TS 19.2600 123.780 main 187 178 O_O______OOO__ jtwc_wp WP121949 19.2000 124.100 30 -1 19.5000 122.500 0 1000 19.2000 124.100 TC 30 19.2000 124.100 1 30 19.2000 124.100 30 996 180 3 314
1949245N18126 1949 63 WP MM NOT_NAMED 1949-09-03 15:00:00 TS 19.3476 123.641 main 169 168 P_P______PPP__ WP121949 19.3075 123.973 27 -1 19.4999 122.257 0 1000 19.3075 123.973 TC 27 19.3153 124.030 1 28 19.3075 123.973 27 997 180 3 298
1949245N18126 1949 63 WP MM NOT_NAMED 1949-09-03 18:00:00 TS 19.4245 123.458 main 168 160 O_O______OPO__ jtwc_wp WP121949 19.4000 123.800 25 -1 19.5000 122.000 0 1000 19.4000 123.800 TC 25 19.4225 123.890 1 27 19.4000 123.800 25 998 180 4 295
1949245N18126 1949 63 WP MM NOT_NAMED 1949-09-03 21:00:00 TS 19.5082 123.274 main 161 155 P_P______PPP__ WP121949 19.5075 123.658 25 -1 19.5001 121.693 0 1000 19.5075 123.658 TC 25 19.5184 123.705 1 26 19.5075 123.658 25 999 150 4 294
1949245N18126 1949 63 WP MM NOT_NAMED 1949-09-04 00:00:00 TS 19.5800 123.080 main 158 148 O_O______OOO__ jtwc_wp WP121949 19.6000 123.500 25 -1 19.5000 121.400 0 1000 19.6000 123.500 TC 25 19.6000 123.500 1 25 19.6000 123.500 25 1000 120 4 288
1949245N18126 1949 63 WP MM NOT_NAMED 1949-09-04 03:00:00 TS 19.6265 122.887 main 148 144 P_P______PPP__ WP121949 19.6575 123.307 25 -1 19.4999 121.193 0 1000 19.6575 123.307 TC 25 19.6603 123.318 1 25 19.6575 123.307 25 1001 120 4 282
1949245N18126 1949 63 WP MM NOT_NAMED 1949-09-04 06:00:00 TS 19.6615 122.684 main 151 146 O_O______OPO__ jtwc_wp WP121949 19.7000 123.100 25 -1 19.5000 121.000 0 1000 19.7000 123.100 TC 25 19.7074 123.122 1 25 19.7000 123.100 25 1002 120 4 281
1949245N18126 1949 63 WP MM NOT_NAMED 1949-09-04 09:00:00 TS 19.6987 122.478 main 146 145 P_P______PPP__ WP121949 19.7500 122.907 25 -1 19.4925 120.750 0 1000 19.7500 122.907 TC 25 19.7509 122.915 1 25 19.7500 122.907 25 1002 180 4 281
1949245N18126 1949 63 WP MM NOT_NAMED 1949-09-04 12:00:00 TS 19.7400 122.260 main 145 145 O_O______OOO__ jtwc_wp WP121949 19.8000 122.700 25 -1 19.5000 120.500 0 1000 19.8000 122.700 TC 25 19.8000 122.700 1 25 19.8000 122.700 25 1002 240 4 282
1949245N18126 1949 63 WP MM NOT_NAMED 1949-09-04 15:00:00 TS 19.7859 122.024 main 156 151 P_P______PPP__ WP121949 19.8425 122.450 25 -1 19.5424 120.300 0 1000 19.8425 122.450 TC 25 19.8597 122.470 1 25 19.8425 122.450 25 1002 240 5 283
1949245N18126 1949 63 WP MM NOT_NAMED 1949-09-04 18:00:00 TS 19.8455 121.787 main 151 151 O_O______OPO__ jtwc_wp WP121949 19.9000 122.200 25 -1 19.6000 120.100 0 1000 19.9000 122.200 TC 25 19.9276 122.235 1 25 19.9000 122.200 25 1002 240 5 288
1949245N18126 1949 63 WP MM NOT_NAMED 1949-09-04 21:00:00 TS 19.9268 121.560 main 158 156 P_P______PPP__ WP121949 19.9925 121.985 25 -1 19.6501 119.835 0 1000 19.9925 121.985 TC 25 20.0066 122.007 1 25 19.9925 121.985 25 1002 210 4 294
1949245N18126 1949 63 WP MM NOT_NAMED 1949-09-05 00:00:00 TS 20.0200 121.360 main 165 162 O_O______OOO__ jtwc_wp WP121949 20.1000 121.800 25 -1 19.7000 119.600 0 1000 20.1000 121.800 TC 25 20.1000 121.800 1 25 20.1000 121.800 25 1002 180 4 299
1949245N18126 1949 63 WP MM NOT_NAMED 1949-09-05 03:00:00 TS 20.1060 121.211 main 170 170 P_P______PPP__ WP121949 20.1925 121.642 25 -1 19.7424 119.492 0 1000 20.1925 121.642 TC 25 20.2104 121.636 1 25 20.1925 121.642 25 1002 180 3 305
1949245N18126 1949 63 WP MM NOT_NAMED 1949-09-05 06:00:00 TS 20.2069 121.078 main 180 178 O_O______OPO__ jtwc_wp WP121949 20.3000 121.500 25 -1 19.8000 119.400 0 1000 20.3000 121.500 TC 25 20.3347 121.492 1 25 20.3000 121.500 25 1002 180 4 311
1949245N18126 1949 63 WP MM NOT_NAMED 1949-09-05 09:00:00 TS 20.3403 120.922 main 178 156 P_P______PPP__ WP121949 20.4500 121.350 25 -1 19.8850 119.208 0 1000 20.4500 121.350 TC 25 20.4667 121.352 1 25 20.4500 121.350 25 1001 150 4 312
1949245N18126 1949 63 WP MM NOT_NAMED 1949-09-05 12:00:00 TS 20.4800 120.760 main 156 145 O_O______OOO__ jtwc_wp WP121949 20.6000 121.200 25 -1 20.0000 119.000 0 1000 20.6000 121.200 TC 25 20.6000 121.200 1 25 20.6000 121.200 25 1000 120 4 311
1949245N18126 1949 63 WP MM NOT_NAMED 1949-09-05 15:00:00 TS 20.5936 120.612 main 145 135 P_P______PPP__ WP121949 20.6999 121.065 27 -1 20.1350 118.842 0 1000 20.6999 121.065 TC 27 20.7331 121.022 1 26 20.6999 121.065 27 999 120 4 308
1949245N18126 1949 63 WP MM NOT_NAMED 1949-09-05 18:00:00 TS 20.7130 120.446 main 137 119 O_O______OPO__ jtwc_wp WP121949 20.8000 120.900 30 -1 20.3000 118.700 0 1000 20.8000 120.900 TC 30 20.8649 120.830 1 27 20.8000 120.900 30 999 120 5 308
1949245N18126 1949 63 WP MM NOT_NAMED 1949-09-05 21:00:00 TS 20.8724 120.235 main 123 118 P_P______PPP__ WP121949 20.9575 120.665 30 -1 20.5000 118.557 0 1000 20.9575 120.665 TC 30 20.9893 120.623 1 28 20.9575 120.665 30 998 120 5 306
1949245N18126 1949 63 WP MM NOT_NAMED 1949-09-06 00:00:00 TS 21.0200 120.000 main 123 121 O_O______OOO__ jtwc_wp WP121949 21.1000 120.400 30 -1 20.7000 118.400 0 1000 21.1000 120.400 TC 30 21.1000 120.400 1 30 21.1000 120.400 30 998 120 5 298
1949245N18126 1949 63 WP MM NOT_NAMED 1949-09-06 03:00:00 TS 21.1046 119.767 main 129 129 P_P______PPP__ WP121949 21.1575 120.150 30 -1 20.8575 118.215 0 1000 21.1575 120.150 TC 30 21.1934 120.168 1 31 21.1575 120.150 30 997 150 5 289
1949245N18126 1949 63 WP MM NOT_NAMED 1949-09-06 06:00:00 TS 21.1745 119.524 main 146 146 O_O______OPO__ jtwc_wp WP121949 21.2000 119.900 30 -1 21.0000 118.000 1 23 1000 21.2000 119.900 TC 30 21.2724 119.922 1 32 21.2000 119.900 30 997 180 5 290
1949245N18126 1949 63 WP MM NOT_NAMED 1949-09-06 09:00:00 TS 21.2765 119.273 main 159 159 P_P______PPP__ WP121949 21.3000 119.650 32 -1 21.1425 117.750 1 23 1000 21.3000 119.650 TC 32 21.3402 119.665 1 33 21.3000 119.650 32 996 180 5 294
1949245N18126 1949 63 WP MM NOT_NAMED 1949-09-06 12:00:00 TS 21.3800 119.020 main 181 181 O_O______OOO__ jtwc_wp WP121949 21.4000 119.400 35 0 21.3000 117.500 1 23 1000 21.4000 119.400 TC 35 21.4000 119.400 2 35 21.4000 119.400 35 996 180 5 293
1949245N18126 1949 63 WP MM NOT_NAMED 1949-09-06 15:00:00 TS 21.4672 118.791 main 190 190 P_P______PPP__ WP121949 21.4574 119.157 32 -1 21.5074 117.300 1 23 1000 21.4574 119.157 TC 32 21.4564 119.181 2 33 21.4574 119.157 32 996 180 5 290
1949245N18126 1949 63 WP MM NOT_NAMED 1949-09-06 18:00:00 TS 21.5412 118.549 main 216 210 O_O______OPO__ jtwc_wp WP121949 21.5000 118.900 30 -1 21.7000 117.100 1 23 1000 21.5000 118.900 TC 30 21.5062 118.947 2 32 21.5000 118.900 30 996 180 5 286
1949245N18126 1949 63 WP MM NOT_NAMED 1949-09-06 21:00:00 TS 21.6050 118.287 main 229 204 P_P______PPP__ WP121949 21.5498 118.637 30 -1 21.8225 116.857 1 26 1000 21.5498 118.637 TC 30 21.5529 118.665 2 31 21.5498 118.637 30 995 180 6 282
1949245N18126 1949 63 WP MM NOT_NAMED 1949-09-07 00:00:00 TS 21.6600 117.960 main 204 175 O_O______OOO__ jtwc_wp WP121949 21.6000 118.300 30 -1 21.9000 116.600 1 29 1000 21.6000 118.300 TC 30 21.6000 118.300 1 30 21.6000 118.300 30 995 180 7 279
1949245N18126 1949 63 WP MM NOT_NAMED 1949-09-07 03:00:00 TS 21.7145 117.552 main 175 137 P_P______PPP__ WP121949 21.6499 117.852 32 -1 21.9648 116.372 1 33 999 21.6499 117.852 TC 32 21.6583 117.828 1 31 21.6499 117.852 32 995 150 8 277
1949245N18126 1949 63 WP MM NOT_NAMED 1949-09-07 06:00:00 TS 21.7630 117.054 main 137 119 O_O______OPO__ jtwc_wp WP121949 21.7000 117.300 35 0 22.0000 116.100 2 38 998 21.7000 117.300 TC 35 21.7150 117.270 1 32 21.7000 117.300 35 995 120 10 275
1949245N18126 1949 63 WP MM NOT_NAMED 1949-09-07 09:00:00 TS 21.8088 116.480 main 119 101 P_P______PPP__ WP121949 21.7575 116.673 35 0 22.0075 115.730 2 48 995 21.7575 116.673 TC 35 21.7642 116.653 1 33 21.7575 116.673 35 995 150 11 274
1949245N18126 1949 63 WP MM NOT_NAMED 1949-09-07 12:00:00 TS 21.8400 115.860 main 101 88 O_O______OOO__ jtwc_wp WP121949 21.8000 116.000 35 0 22.0000 115.300 3 58 993 21.8000 116.000 TC 35 21.8000 116.000 2 35 21.8000 116.000 35 996 180 11 272
1949245N18126 1949 63 WP MM NOT_NAMED 1949-09-07 15:00:00 TS 21.8455 115.262 main 88 69 P_P______PPP__ WP121949 21.8072 115.357 35 0 21.9995 114.902 3 58 991 21.8072 115.357 TC 35 21.8065 115.333 2 35 21.8072 115.357 35 996 150 11 270
1949245N18126 1949 63 WP MM NOT_NAMED 1949-09-07 18:00:00 TS 21.8401 114.628 main 63 55 O_O______OPO__ jtwc_wp WP121949 21.8000 114.700 35 0 22.0000 114.400 3 58 990 21.8000 114.700 TC 35 21.8005 114.642 2 35 21.8000 114.700 35 996 120 12 269
1949245N18126 1949 63 WP MM NOT_NAMED 1949-09-07 21:00:00 TS 21.8344 113.919 main 60 32 P_P______PPP__ WP121949 21.7926 113.985 35 0 22.0003 113.687 3 58 990 21.7926 113.985 TC 35 21.7940 113.955 2 35 21.7926 113.985 35 996 150 13 270
1949245N18126 1949 63 WP MM NOT_NAMED 1949-09-08 00:00:00 TS 21.8400 113.220 main 23 0 O_O______OOO__ jtwc_wp WP121949 21.8000 113.300 35 0 22.0000 112.900 3 58 990 21.8000 113.300 TC 35 21.8000 113.300 2 35 21.8000 113.300 35 996 180 12 272
1949245N18126 1949 63 WP MM NOT_NAMED 1949-09-08 03:00:00 TS 21.8693 112.615 main 0 0 P_P______PPP__ WP121949 21.8421 112.728 35 0 21.9921 112.192 3 53 991 21.8421 112.728 TC 35 21.8282 112.698 2 33 21.8421 112.728 35 996 180 11 274
1949245N18126 1949 63 WP MM NOT_NAMED 1949-09-08 06:00:00 TS 21.9172 112.043 main 0 0 O_O______OPO__ jtwc_wp WP121949 21.9000 112.200 35 0 22.0000 111.500 3 48 993 21.9000 112.200 TC 35 21.8754 112.141 2 32 21.9000 112.200 35 996 180 11 275
1949245N18126 1949 63 WP MM NOT_NAMED 1949-09-08 09:00:00 TS 21.9687 111.454 main 0 0 P_P______PPP__ WP121949 21.9499 111.642 32 -1 22.0421 110.808 3 38 995 21.9499 111.642 TC 32 21.9349 111.613 2 31 21.9499 111.642 32 996 210 11 276
1949245N18126 1949 63 WP MM NOT_NAMED 1949-09-08 12:00:00 TS 22.0286 110.814 main 0 0 O_O______OOO__ jtwc_wp WP121949 22.0000 111.100 30 -1 22.1000 110.100 1 29 998 22.0000 111.100 TC 30 22.0000 111.100 1 30 22.0000 111.100 30 997 240 13 276
1949245N18126 1949 63 WP MM NOT_NAMED 1949-09-08 15:00:00 TS 22.0932 110.088 main 0 0 P_P______P_P__ WP121949 22.0502 110.590 27 -1 22.1575 109.335 1 23 999 22.0502 110.590 TC 27 1 22.0502 110.590 27 998 210 14 275
1949245N18126 1949 63 WP MM NOT_NAMED 1949-09-08 18:00:00 TS 22.1500 109.350 main 0 0 O_O______O_O__ jtwc_wp WP121949 22.1000 110.100 25 -1 22.2000 108.600 0 17 1000 22.1000 110.100 TC 25 1 22.1000 110.100 25 1000 180 20 273
1949245N18126 1949 63 WP MM NOT_NAMED 1949-09-08 21:00:00 TS 22.2101 107.967 main 0 0 __P___________ WP121949 -1 22.2101 107.967 0 17 1000 TC 1 18 272
1949245N18126 1949 63 WP MM NOT_NAMED 1949-09-09 00:00:00 TS 22.2000 107.400 main 0 __O___________ -1 22.2000 107.400 0 17 1000 11 269

Digital Typhoon Data and Search

About IBTrACS Database

This database is a web-friendly format of International Best Track Archive for Climate Stewardship (IBTrACS), a global best track data archive curated by NOAA dating back to 1842.

Updated: 2021-12-08